メインページ
METAR-TAF:

METAR-TAF

空港 :

高松空港

高松, 日本

緯度: 34-13N, 経度: 134-01E, 海抜: 185m

現時点の気象観測

当レポートは22分前の12:00(UTC)に作成
変向風 1kt
気温 16°C
湿度 94%
気圧 1012 hPa
視程10km以上
高度2000ftの雲はほとんどない
高度6000ftの雲は散在している
高度12000ftの千切れ雲あり
近辺でにわか雨

METAR: RJOT 161200Z VRB01KT 9999 VCSH FEW020 SCT060 BKN120 16/15 Q1012

時間: 21:22 (12:22 UTC)

予報

当レポートは1時間13分前の11:09(UTC)に作成
予報は16日の 12時(UTC)から 17日の 18時(UTC)まで有効
南/南東の風 5kt
視程10km以上
高度1500ftの雲はほとんどない
高度5000ftの雲は散在している

TAF: RJOT 161109Z 1612/1718 15005KT 9999 FEW015 SCT050

4,000以上の空港の気象観測と天気予報(METAR報とTAF報)

利用可能な観測所は地図上に黄色い丸と赤い丸で示す。

丸の上にカーソルを重ねると観測所名を参照できる。

次にクリックすると気象観測と天気予報を参照できる。

マップの切り替え:黒色「×」印の緑ボタンをクリックして拡大、「-」印の緑ボタンをクリックして縮小、緑色の三角印をクリックして隣りの地図に切り替え


METAR-TAF: